Time;durP1;ratioP1;P1;durP2;ratioP2;P2;SDS_P1;SDS_P2;PMS_P1;PMS_P2;Temp;Humidity;BMP_temperature;BMP_pressure;BME280_temperature;BME280_humidity;BME280_pressure;Samples;Min_cycle;Max_cycle;Signal;HPM_P1;HPM_P2
2023/08/22 00:00:50;;;;;;;12.50;10.30;;;;;;;30.17;36.94;100521.78;108322;1277;21986;-71
2023/08/22 00:03:16;;;;;;;12.10;10.40;;;;;;;30.14;37.16;100520.78;108356;1281;22241;-58
2023/08/22 00:05:42;;;;;;;11.50;10.30;;;;;;;30.12;37.21;100520.41;108356;1277;21984;-60
2023/08/22 00:08:07;;;;;;;14.90;10.90;;;;;;;30.10;37.27;100518.75;108332;1281;23657;-71
2023/08/22 00:10:33;;;;;;;12.70;10.50;;;;;;;30.08;37.43;100519.06;108301;1278;21982;-71
2023/08/22 00:12:59;;;;;;;16.30;10.90;;;;;;;30.08;37.46;100515.70;108356;1278;21992;-59
2023/08/22 00:15:25;;;;;;;12.90;11.30;;;;;;;30.08;37.42;100516.75;108283;1281;23642;-59
2023/08/22 00:17:50;;;;;;;15.70;11.00;;;;;;;30.09;37.41;100517.73;108323;1283;22118;-71
2023/08/22 00:20:16;;;;;;;13.00;11.20;;;;;;;30.10;37.61;100520.02;108363;1277;22044;-59
2023/08/22 00:22:42;;;;;;;14.60;11.50;;;;;;;30.10;37.59;100517.80;108383;1275;22041;-71
2023/08/22 00:25:09;;;;;;;13.00;11.70;;;;;;;30.11;37.51;100516.66;108277;1277;22144;-59
2023/08/22 00:27:35;;;;;;;17.10;11.70;;;;;;;30.10;37.69;100517.13;108311;1277;21986;-58
2023/08/22 00:30:00;;;;;;;16.60;11.60;;;;;;;30.08;37.71;100515.15;108272;1277;22021;-71
2023/08/22 00:32:26;;;;;;;12.60;11.20;;;;;;;30.07;37.69;100514.15;108293;1283;21989;-72
2023/08/22 00:34:51;;;;;;;14.00;12.30;;;;;;;30.07;37.68;100511.27;108336;1274;21984;-58
2023/08/22 00:37:18;;;;;;;15.40;12.10;;;;;;;30.07;37.73;100511.08;108393;1277;22094;-72
2023/08/22 00:39:43;;;;;;;17.70;12.00;;;;;;;30.07;37.86;100511.27;108379;1276;21983;-58
2023/08/22 00:42:09;;;;;;;15.60;12.40;;;;;;;30.04;37.90;100509.32;108318;1278;21989;-58
2023/08/22 00:44:34;;;;;;;13.90;11.90;;;;;;;30.02;38.04;100507.95;108251;1277;21991;-62
2023/08/22 00:47:00;;;;;;;16.20;12.90;;;;;;;30.02;38.14;100505.28;108307;1281;21986;-59
2023/08/22 00:49:26;;;;;;;14.10;12.50;;;;;;;30.01;38.07;100506.20;108300;1277;21992;-64
2023/08/22 00:51:52;;;;;;;14.30;12.00;;;;;;;30.01;38.03;100507.12;108296;1283;21990;-59
2023/08/22 00:54:17;;;;;;;14.00;11.50;;;;;;;30.02;38.08;100508.48;108151;1280;24460;-71
2023/08/22 00:56:43;;;;;;;14.10;12.40;;;;;;;30.02;38.16;100509.00;108095;1280;21981;-59
2023/08/22 00:59:08;;;;;;;14.80;11.40;;;;;;;30.02;38.34;100509.91;108188;1284;21993;-72
2023/08/22 01:01:34;;;;;;;19.90;12.80;;;;;;;30.01;38.31;100510.58;108271;1277;21983;-72
2023/08/22 01:03:59;;;;;;;14.80;11.40;;;;;;;30.00;38.33;100510.34;108359;1277;22024;-72
2023/08/22 01:06:34;;;;;;;13.70;11.80;;;;;;;29.96;38.29;100510.66;108429;1282;22042;-71
2023/08/22 01:09:04;;;;;;;14.00;11.50;;;;;;;29.93;38.34;100512.73;108420;1282;21990;-58
2023/08/22 01:11:31;;;;;;;;;;;;;;;29.92;38.34;100516.82;108361;1277;21966;-72
2023/08/22 01:13:57;;;;;;;15.70;11.50;;;;;;;29.86;38.56;100522.23;108278;1278;22059;-72
2023/08/22 01:16:23;;;;;;;13.70;11.50;;;;;;;29.76;38.50;100522.80;108407;1276;21978;-69
2023/08/22 01:18:48;;;;;;;18.00;12.90;;;;;;;29.67;38.65;100523.05;108249;1283;21993;-72
2023/08/22 01:21:21;;;;;;;13.80;11.70;;;;;;;29.62;38.77;100524.25;108235;1283;21986;-69
2023/08/22 01:23:46;;;;;;;12.80;11.30;;;;;;;29.59;38.83;100524.13;108311;1282;21995;-59
2023/08/22 01:26:12;;;;;;;14.70;11.70;;;;;;;29.56;38.89;100520.02;108393;1280;21985;-60
2023/08/22 01:28:44;;;;;;;16.70;12.30;;;;;;;29.53;38.78;100517.05;108088;1283;21988;-59
2023/08/22 01:31:32;;;;;;;13.00;11.60;;;;;;;29.52;39.08;100516.98;108422;1275;21977;-58
2023/08/22 01:34:20;;;;;;;13.50;11.00;;;;;;;29.51;38.91;100514.92;108421;1278;22021;-58
2023/08/22 01:36:46;;;;;;;13.80;11.20;;;;;;;29.49;39.07;100518.71;108358;1277;22159;-59
2023/08/22 01:39:15;;;;;;;16.20;11.80;;;;;;;29.47;39.26;100520.67;108158;1283;22021;-58
2023/08/22 01:41:40;;;;;;;16.10;11.40;;;;;;;29.45;39.27;100524.27;108213;1279;22042;-72
2023/08/22 01:44:06;;;;;;;12.50;11.00;;;;;;;29.41;39.39;100526.42;108202;1280;21990;-57
2023/08/22 01:46:32;;;;;;;13.00;11.30;;;;;;;29.36;39.51;100528.88;108278;1275;21993;-58
2023/08/22 01:48:57;;;;;;;13.50;11.40;;;;;;;29.30;39.51;100524.89;108269;1276;21997;-71
2023/08/22 01:51:23;;;;;;;18.30;12.30;;;;;;;29.23;39.34;100526.00;108264;1280;22852;-71
2023/08/22 01:53:48;;;;;;;17.30;11.20;;;;;;;29.15;39.63;100530.84;108269;1283;21992;-71
2023/08/22 01:56:14;;;;;;;15.20;12.60;;;;;;;29.09;39.76;100531.74;108301;1277;22001;-71
2023/08/22 01:58:39;;;;;;;15.90;11.00;;;;;;;29.05;39.61;100527.61;108397;1281;22546;-71
2023/08/22 02:01:09;;;;;;;16.20;11.80;;;;;;;29.01;39.70;100527.21;108474;1281;22039;-57
2023/08/22 02:03:34;;;;;;;14.60;11.60;;;;;;;28.93;39.87;100530.09;108463;1282;23704;-72
2023/08/22 02:06:00;;;;;;;13.10;10.40;;;;;;;28.91;40.00;100529.16;108432;1276;21984;-72
2023/08/22 02:08:25;;;;;;;12.60;9.60;;;;;;;28.90;39.93;100527.26;108392;1277;21988;-72
2023/08/22 02:10:51;;;;;;;13.00;10.00;;;;;;;28.88;40.11;100524.97;108411;1278;22001;-72
2023/08/22 02:13:17;;;;;;;11.40;10.30;;;;;;;28.87;40.32;100524.33;108376;1277;21998;-58
2023/08/22 02:15:42;;;;;;;12.80;9.80;;;;;;;28.86;40.53;100525.27;108407;1277;21980;-71
2023/08/22 02:18:08;;;;;;;11.80;10.20;;;;;;;28.86;40.60;100525.30;108398;1275;21988;-58
2023/08/22 02:20:33;;;;;;;12.20;10.40;;;;;;;28.84;40.57;100524.35;108354;1277;21988;-73
2023/08/22 02:23:01;;;;;;;13.70;10.90;;;;;;;28.84;40.61;100527.14;108261;1275;22033;-59
2023/08/22 02:25:27;;;;;;;15.30;11.20;;;;;;;28.82;40.86;100530.17;108407;1275;21988;-58
2023/08/22 02:27:52;;;;;;;13.90;10.70;;;;;;;28.78;40.83;100529.58;108264;1283;21994;-72
2023/08/22 02:30:18;;;;;;;12.70;10.70;;;;;;;28.74;40.94;100532.46;108293;1283;21988;-72
2023/08/22 02:32:44;;;;;;;17.90;11.30;;;;;;;28.69;40.94;100526.17;108300;1280;21984;-58
2023/08/22 02:35:10;;;;;;;13.70;10.80;;;;;;;28.63;41.07;100526.89;108293;1277;22003;-58
2023/08/22 02:37:35;;;;;;;14.20;10.20;;;;;;;28.58;41.04;100524.08;108292;1277;21995;-73
2023/08/22 02:40:01;;;;;;;12.90;9.80;;;;;;;28.56;41.12;100520.80;108290;1276;21983;-72
2023/08/22 02:42:26;;;;;;;25.00;10.80;;;;;;;28.54;41.28;100518.45;108279;1277;22153;-58
2023/08/22 02:44:52;;;;;;;15.70;11.10;;;;;;;28.51;41.25;100517.98;108322;1281;21999;-73
2023/08/22 02:47:18;;;;;;;18.10;10.90;;;;;;;28.49;41.35;100520.45;108400;1278;21991;-58
2023/08/22 02:49:43;;;;;;;15.10;10.30;;;;;;;28.48;41.50;100522.89;108382;1272;21984;-58
2023/08/22 02:52:09;;;;;;;21.80;10.70;;;;;;;28.45;41.49;100523.14;108444;1277;21982;-58
2023/08/22 02:54:34;;;;;;;20.30;11.20;;;;;;;28.41;41.50;100522.77;108379;1276;21984;-58
2023/08/22 02:57:00;;;;;;;16.70;11.00;;;;;;;28.38;41.46;100525.60;108351;1277;21979;-58
2023/08/22 02:59:26;;;;;;;14.70;10.10;;;;;;;28.35;41.64;100531.73;108401;1281;21986;-58
2023/08/22 03:01:51;;;;;;;14.80;10.60;;;;;;;28.34;41.78;100531.64;108360;1277;21991;-71
2023/08/22 03:04:17;;;;;;;20.10;10.80;;;;;;;28.35;41.75;100535.91;108280;1276;21989;-58
2023/08/22 03:06:42;;;;;;;24.30;11.10;;;;;;;28.35;42.08;100537.73;108273;1283;21987;-70
2023/08/22 03:09:08;;;;;;;20.80;10.90;;;;;;;28.31;42.03;100538.98;108273;1277;21982;-73
2023/08/22 03:11:33;;;;;;;15.50;10.70;;;;;;;28.25;42.04;100540.60;108270;1282;21994;-58
2023/08/22 03:13:59;;;;;;;15.90;10.80;;;;;;;28.19;42.20;100538.34;108294;1277;21992;-72
2023/08/22 03:16:25;;;;;;;18.50;10.10;;;;;;;28.16;42.42;100537.14;108268;1274;22236;-58
2023/08/22 03:18:50;;;;;;;13.20;9.70;;;;;;;28.15;42.49;100538.16;108273;1277;21990;-58
2023/08/22 03:21:16;;;;;;;21.30;10.20;;;;;;;28.14;42.67;100541.70;108259;1281;22021;-58
2023/08/22 03:23:41;;;;;;;14.60;9.80;;;;;;;28.13;42.88;100542.98;108167;1278;21989;-72
2023/08/22 03:26:10;;;;;;;15.30;10.90;;;;;;;28.16;42.79;100546.36;108129;1277;24314;-57
2023/08/22 03:28:36;;;;;;;20.10;10.30;;;;;;;28.19;42.59;100544.80;108271;1278;21986;-58
2023/08/22 03:31:05;;;;;;;20.20;11.10;;;;;;;28.24;42.66;100546.64;108159;1280;21985;-58
2023/08/22 03:33:31;;;;;;;23.10;10.90;;;;;;;28.23;42.78;100546.66;108258;1278;21984;-58
2023/08/22 03:35:57;;;;;;;24.30;10.80;;;;;;;28.17;42.48;100550.10;108371;1283;21972;-70
2023/08/22 03:38:23;;;;;;;21.20;11.00;;;;;;;28.10;42.62;100550.27;108323;1277;22119;-72
2023/08/22 03:40:48;;;;;;;21.90;10.90;;;;;;;28.09;42.83;100550.88;108352;1273;22000;-71
2023/08/22 03:43:18;;;;;;;16.90;9.50;;;;;;;28.13;43.11;100548.06;108313;1281;22021;-72
2023/08/22 03:45:44;;;;;;;18.40;9.90;;;;;;;28.19;43.15;100547.36;108363;1274;22021;-73
2023/08/22 03:48:09;;;;;;;15.50;10.10;;;;;;;28.27;43.20;100547.05;108353;1277;22003;-71
2023/08/22 03:50:35;;;;;;;20.10;10.70;;;;;;;28.34;43.16;100548.61;108294;1281;22447;-74
2023/08/22 03:53:00;;;;;;;14.60;10.60;;;;;;;28.41;43.24;100545.76;108274;1276;23306;-58
2023/08/22 03:55:26;;;;;;;13.20;11.30;;;;;;;28.46;43.24;100541.27;108273;1275;21993;-72
2023/08/22 03:57:52;;;;;;;14.20;10.10;;;;;;;28.53;43.23;100541.60;108288;1283;21988;-57
2023/08/22 04:00:17;;;;;;;14.40;9.90;;;;;;;28.58;43.52;100538.09;108307;1277;22040;-57
2023/08/22 04:02:43;;;;;;;19.70;10.10;;;;;;;28.66;43.41;100542.70;108323;1277;22012;-72
2023/08/22 04:05:09;;;;;;;14.00;9.60;;;;;;;28.74;43.75;100546.68;108173;1284;24332;-58
2023/08/22 04:07:35;;;;;;;17.20;9.30;;;;;;;28.83;43.83;100545.92;108295;1278;21997;-74
2023/08/22 04:10:01;;;;;;;24.70;10.60;;;;;;;28.93;43.73;100548.52;108330;1278;21989;-57
2023/08/22 04:12:27;;;;;;;22.50;10.20;;;;;;;29.03;43.66;100551.45;108276;1279;22004;-58
2023/08/22 04:14:53;;;;;;;18.80;10.60;;;;;;;29.13;43.72;100552.06;108372;1281;21995;-58
2023/08/22 04:17:18;;;;;;;11.50;9.50;;;;;;;29.22;43.80;100548.85;108331;1283;21984;-58
2023/08/22 04:19:44;;;;;;;12.60;9.10;;;;;;;29.32;43.84;100552.51;108407;1282;21983;-71
2023/08/22 04:22:09;;;;;;;18.60;10.10;;;;;;;29.42;43.80;100555.98;108416;1281;21981;-58
2023/08/22 04:24:35;;;;;;;12.40;9.10;;;;;;;29.53;43.90;100558.42;108443;1278;21986;-72
2023/08/22 04:27:01;;;;;;;18.40;10.10;;;;;;;29.66;43.94;100560.73;108410;1273;21992;-58
2023/08/22 04:29:26;;;;;;;14.60;9.90;;;;;;;29.78;43.99;100561.96;108402;1271;21981;-58
2023/08/22 04:31:52;;;;;;;15.90;9.60;;;;;;;29.90;43.90;100562.58;108475;1274;21984;-70
2023/08/22 04:34:17;;;;;;;20.70;10.00;;;;;;;30.01;44.21;100566.59;108343;1281;21986;-70
2023/08/22 04:36:43;;;;;;;25.00;11.10;;;;;;;30.14;44.14;100559.64;108327;1277;21984;-70
2023/08/22 04:39:10;;;;;;;13.90;9.90;;;;;;;30.28;44.04;100562.71;108305;1278;21985;-58
2023/08/22 04:41:35;;;;;;;18.60;10.10;;;;;;;30.43;43.78;100561.92;108339;1281;22048;-59
2023/08/22 04:44:01;;;;;;;13.80;10.10;;;;;;;30.56;43.73;100563.20;108337;1283;22041;-58
2023/08/22 04:46:27;;;;;;;9.70;8.60;;;;;;;30.69;43.49;100563.59;108411;1271;21982;-58
2023/08/22 04:48:52;;;;;;;9.80;8.40;;;;;;;30.83;43.50;100563.80;108310;1271;21979;-58
2023/08/22 04:51:18;;;;;;;10.40;8.40;;;;;;;30.97;43.40;100564.30;108301;1283;22000;-71
2023/08/22 04:53:46;;;;;;;9.80;8.80;;;;;;;31.11;43.28;100564.40;108391;1282;22004;-71
2023/08/22 04:56:12;;;;;;;14.00;9.30;;;;;;;31.25;43.16;100567.77;108419;1277;21988;-59
2023/08/22 04:58:37;;;;;;;11.50;8.70;;;;;;;31.39;43.20;100568.79;108352;1282;21959;-71
2023/08/22 05:01:03;;;;;;;14.70;9.90;;;;;;;31.52;43.04;100568.90;108362;1278;22026;-73
2023/08/22 05:03:29;;;;;;;13.70;9.50;;;;;;;31.67;43.01;100568.15;108373;1281;21991;-71
2023/08/22 05:05:54;;;;;;;11.40;8.70;;;;;;;31.81;42.90;100568.09;108360;1278;21988;-58
2023/08/22 05:08:20;;;;;;;13.30;9.30;;;;;;;31.96;42.69;100573.35;108266;1277;21988;-58
2023/08/22 05:10:45;;;;;;;15.90;9.70;;;;;;;32.10;42.69;100575.91;108363;1281;21978;-58
2023/08/22 05:13:11;;;;;;;10.10;9.10;;;;;;;32.23;42.50;100573.23;108374;1278;21990;-58
2023/08/22 05:15:37;;;;;;;14.30;9.10;;;;;;;32.35;42.21;100573.13;108352;1283;21967;-72
2023/08/22 05:18:03;;;;;;;13.30;9.30;;;;;;;32.46;42.14;100570.85;108436;1281;21984;-66
2023/08/22 05:20:28;;;;;;;17.30;8.70;;;;;;;32.59;42.08;100566.97;108438;1283;21983;-58
2023/08/22 05:22:54;;;;;;;10.60;8.80;;;;;;;32.76;41.92;100566.95;108102;1280;23376;-71
2023/08/22 05:25:20;;;;;;;15.50;9.20;;;;;;;32.91;41.75;100566.30;108311;1274;21978;-73
2023/08/22 05:27:45;;;;;;;16.80;8.50;;;;;;;33.11;41.62;100568.63;108383;1277;21981;-58
2023/08/22 05:30:11;;;;;;;12.50;9.30;;;;;;;33.28;41.30;100563.83;108417;1277;21987;-71
2023/08/22 05:32:37;;;;;;;11.40;8.60;;;;;;;33.42;41.04;100565.20;108396;1283;21988;-72
2023/08/22 05:35:03;;;;;;;10.60;9.10;;;;;;;33.56;40.84;100566.45;108392;1278;23644;-58
2023/08/22 05:37:29;;;;;;;12.30;8.70;;;;;;;33.72;40.72;100566.36;108438;1278;21971;-71
2023/08/22 05:39:54;;;;;;;9.90;8.30;;;;;;;33.88;40.57;100568.11;108410;1275;21989;-65
2023/08/22 05:42:20;;;;;;;11.20;8.30;;;;;;;34.05;40.58;100569.19;108367;1278;21994;-74
2023/08/22 05:44:45;;;;;;;9.30;8.00;;;;;;;34.21;40.19;100574.23;108371;1277;21985;-58
2023/08/22 05:47:11;;;;;;;13.80;8.80;;;;;;;34.34;39.95;100576.69;108381;1281;21982;-71
2023/08/22 05:49:37;;;;;;;11.20;7.80;;;;;;;34.48;39.85;100577.63;108455;1281;21985;-59
2023/08/22 05:52:05;;;;;;;11.10;8.90;;;;;;;34.65;39.72;100583.70;108383;1283;21987;-70
2023/08/22 05:54:31;;;;;;;10.70;7.80;;;;;;;34.79;39.45;100583.96;108294;1281;21986;-58
2023/08/22 05:56:57;;;;;;;9.90;8.10;;;;;;;34.88;39.31;100584.11;108235;1280;22022;-59
2023/08/22 05:59:23;;;;;;;8.90;7.90;;;;;;;34.97;39.25;100586.00;108402;1277;23724;-71
2023/08/22 06:01:52;;;;;;;9.60;8.50;;;;;;;35.06;39.04;100583.05;108298;1281;21989;-58
2023/08/22 06:04:17;;;;;;;10.70;8.30;;;;;;;35.13;38.58;100584.18;108378;1277;22170;-71
2023/08/22 06:06:44;;;;;;;10.30;8.40;;;;;;;35.20;38.68;100588.55;108383;1278;22154;-73
2023/08/22 06:09:10;;;;;;;11.60;9.20;;;;;;;35.31;38.61;100589.54;108442;1280;21980;-58
2023/08/22 06:11:36;;;;;;;13.60;8.50;;;;;;;35.43;38.33;100588.60;108408;1277;21986;-59
2023/08/22 06:14:01;;;;;;;13.40;8.50;;;;;;;35.57;38.04;100588.56;108419;1276;21979;-59
2023/08/22 06:16:27;;;;;;;13.50;8.10;;;;;;;35.69;37.64;100585.56;108400;1283;21991;-71
2023/08/22 06:18:53;;;;;;;10.70;7.70;;;;;;;35.93;37.79;100587.52;108403;1283;23599;-72
2023/08/22 06:21:19;;;;;;;10.80;7.20;;;;;;;36.20;37.43;100585.29;108321;1278;21978;-60
2023/08/22 06:23:44;;;;;;;9.50;7.40;;;;;;;36.40;37.07;100585.81;108335;1277;21983;-58
2023/08/22 06:26:10;;;;;;;11.20;7.80;;;;;;;36.61;36.77;100583.36;108327;1283;21996;-71
2023/08/22 06:28:36;;;;;;;8.80;7.10;;;;;;;36.71;36.23;100583.16;108299;1284;22851;-58
2023/08/22 06:31:03;;;;;;;11.70;6.70;;;;;;;36.79;36.07;100583.98;108290;1283;21996;-64
2023/08/22 06:33:29;;;;;;;8.60;6.70;;;;;;;36.92;35.69;100583.52;108316;1283;21992;-70
2023/08/22 06:35:55;;;;;;;7.60;6.40;;;;;;;36.97;35.56;100583.75;108350;1281;21988;-72
2023/08/22 06:38:20;;;;;;;9.40;7.40;;;;;;;37.00;35.10;100584.65;108338;1283;21986;-59
2023/08/22 06:40:46;;;;;;;8.80;7.90;;;;;;;37.03;34.79;100580.68;108290;1284;21989;-71
2023/08/22 06:43:13;;;;;;;9.80;7.20;;;;;;;37.09;34.75;100578.83;108307;1278;21983;-71
2023/08/22 06:45:39;;;;;;;8.80;6.80;;;;;;;37.23;34.84;100581.37;108325;1284;21981;-59
2023/08/22 06:48:05;;;;;;;9.50;7.00;;;;;;;37.38;34.76;100577.14;108362;1278;21989;-71
2023/08/22 06:50:30;;;;;;;10.80;7.00;;;;;;;37.56;34.68;100578.77;108261;1278;21984;-58
2023/08/22 06:52:56;;;;;;;11.00;7.30;;;;;;;37.70;34.76;100578.73;108272;1281;21985;-59
2023/08/22 06:55:22;;;;;;;8.10;6.70;;;;;;;37.82;34.61;100576.75;108274;1277;21986;-73
2023/08/22 06:57:47;;;;;;;8.60;6.80;;;;;;;37.97;34.04;100576.55;108286;1283;21984;-59
2023/08/22 07:00:14;;;;;;;8.70;7.40;;;;;;;38.13;33.68;100577.46;108275;1277;21988;-72
2023/08/22 07:02:41;;;;;;;9.30;6.60;;;;;;;38.19;33.07;100577.34;108429;1277;21993;-74
2023/08/22 07:05:08;;;;;;;8.30;6.30;;;;;;;38.28;32.94;100575.56;108311;1278;21994;-78
2023/08/22 07:07:35;;;;;;;12.20;7.20;;;;;;;38.38;32.51;100574.00;108397;1281;21984;-58
2023/08/22 07:10:01;;;;;;;19.40;6.90;;;;;;;38.62;33.09;100572.21;108371;1278;21986;-58
2023/08/22 07:12:26;;;;;;;17.70;6.80;;;;;;;38.95;32.98;100573.15;108313;1278;21991;-71
2023/08/22 07:14:52;;;;;;;7.80;5.70;;;;;;;39.25;32.21;100572.35;108300;1281;21994;-70
2023/08/22 07:17:17;;;;;;;29.10;8.10;;;;;;;39.35;31.69;100574.70;108193;1277;21987;-59
2023/08/22 07:19:43;;;;;;;17.20;11.80;;;;;;;39.38;31.85;100578.35;108312;1277;21991;-71
2023/08/22 07:22:08;;;;;;;26.50;18.40;;;;;;;39.36;31.43;100573.82;108266;1283;21980;-73
2023/08/22 07:24:34;;;;;;;10.80;7.90;;;;;;;39.36;31.48;100573.68;108297;1284;21978;-73
2023/08/22 07:27:00;;;;;;;9.90;7.40;;;;;;;39.49;31.67;100574.34;108301;1277;21980;-73
2023/08/22 07:29:25;;;;;;;13.00;6.70;;;;;;;39.69;31.43;100573.05;108307;1283;21985;-58
2023/08/22 07:31:52;;;;;;;10.30;7.10;;;;;;;39.88;31.14;100572.28;108288;1277;23708;-71
2023/08/22 07:34:18;;;;;;;11.70;7.00;;;;;;;40.03;30.81;100573.14;108324;1277;21979;-59
2023/08/22 07:36:43;;;;;;;10.10;6.50;;;;;;;40.15;30.15;100569.39;109504;1283;21982;-60
2023/08/22 07:39:09;;;;;;;10.00;5.90;;;;;;;40.25;30.54;100570.91;108084;1278;190293;-72
2023/08/22 07:41:35;;;;;;;9.10;5.90;;;;;;;40.39;30.56;100574.90;108342;1277;22061;-58
2023/08/22 07:44:00;;;;;;;7.90;5.90;;;;;;;40.50;30.40;100573.77;108416;1281;22017;-71
2023/08/22 07:46:26;;;;;;;7.60;5.70;;;;;;;40.65;30.24;100574.27;108302;1281;21985;-72
2023/08/22 07:48:51;;;;;;;7.20;5.60;;;;;;;40.77;29.37;100575.93;108362;1277;21988;-59
2023/08/22 07:51:17;;;;;;;6.40;5.20;;;;;;;40.93;29.72;100575.80;108322;1282;22010;-59
2023/08/22 07:53:42;;;;;;;8.30;5.70;;;;;;;41.20;29.56;100576.10;108319;1272;21990;-58
2023/08/22 07:56:08;;;;;;;7.40;5.70;;;;;;;41.30;29.43;100572.78;108358;1270;22389;-71
2023/08/22 07:58:34;;;;;;;7.40;5.60;;;;;;;41.35;28.61;100574.05;108378;1272;21980;-58
2023/08/22 08:01:00;;;;;;;6.20;5.50;;;;;;;41.31;28.53;100574.73;108391;1277;22020;-71
2023/08/22 08:03:25;;;;;;;10.50;5.80;;;;;;;41.32;28.89;100572.70;108315;1278;22037;-72
2023/08/22 08:05:51;;;;;;;7.50;5.60;;;;;;;41.41;28.45;100569.81;108323;1277;22036;-72
2023/08/22 08:08:16;;;;;;;7.50;6.70;;;;;;;41.48;27.93;100565.62;108348;1277;21980;-65
2023/08/22 08:10:42;;;;;;;8.50;7.60;;;;;;;41.57;28.03;100569.47;108289;1281;21988;-72
2023/08/22 08:13:08;;;;;;;7.50;6.20;;;;;;;41.57;27.44;100574.36;108310;1281;21979;-73
2023/08/22 08:15:33;;;;;;;7.40;6.20;;;;;;;41.55;26.95;100572.41;108349;1279;21991;-73
2023/08/22 08:18:01;;;;;;;7.30;5.70;;;;;;;41.55;27.15;100565.30;108317;1280;21989;-60
2023/08/22 08:20:27;;;;;;;9.50;5.70;;;;;;;41.51;26.51;100564.16;108287;1283;21981;-59
2023/08/22 08:22:52;;;;;;;7.40;5.40;;;;;;;41.52;26.75;100562.06;108333;1283;21990;-59
2023/08/22 08:25:18;;;;;;;7.00;5.40;;;;;;;41.53;26.47;100564.25;108272;1274;21983;-59
2023/08/22 08:27:44;;;;;;;13.80;5.80;;;;;;;41.56;26.60;100562.81;108352;1280;21988;-59
2023/08/22 08:30:10;;;;;;;7.70;4.90;;;;;;;41.63;26.28;100562.13;108324;1283;21979;-59
2023/08/22 08:32:36;;;;;;;10.90;5.20;;;;;;;41.77;26.36;100558.09;108476;1281;21992;-59
2023/08/22 08:35:04;;;;;;;6.40;4.90;;;;;;;41.88;25.93;100557.44;108384;1283;21984;-59
2023/08/22 08:37:30;;;;;;;6.10;5.20;;;;;;;42.00;26.00;100563.75;108389;1276;21977;-72
2023/08/22 08:39:56;;;;;;;7.70;5.10;;;;;;;42.22;26.51;100556.45;108304;1274;21982;-59
2023/08/22 08:42:21;;;;;;;5.50;5.00;;;;;;;42.39;25.62;100556.96;108307;1270;21983;-59
2023/08/22 08:44:47;;;;;;;16.60;7.40;;;;;;;42.56;25.62;100560.98;108192;1284;21984;-72
2023/08/22 08:47:12;;;;;;;9.20;7.10;;;;;;;42.70;25.49;100558.90;108259;1279;22448;-73
2023/08/22 08:49:38;;;;;;;25.20;18.00;;;;;;;42.78;25.17;100557.66;108240;1282;21997;-73
2023/08/22 08:52:05;;;;;;;9.80;7.20;;;;;;;42.86;25.21;100558.53;108338;1282;21983;-73
2023/08/22 08:54:32;;;;;;;6.80;4.50;;;;;;;42.99;25.33;100553.49;108289;1278;21983;-59
2023/08/22 08:56:57;;;;;;;6.30;4.80;;;;;;;43.06;25.00;100547.95;108222;1283;21980;-59
2023/08/22 08:59:23;;;;;;;9.50;5.30;;;;;;;43.15;24.84;100552.25;108408;1278;21985;-60
2023/08/22 09:01:50;;;;;;;6.70;4.50;;;;;;;43.25;24.43;100556.38;108243;1280;21981;-60
2023/08/22 09:04:17;;;;;;;10.50;5.20;;;;;;;43.26;23.99;100550.83;108374;1281;23011;-74
2023/08/22 09:06:44;;;;;;;9.60;4.80;;;;;;;43.30;24.30;100549.10;108363;1274;22161;-72
2023/08/22 09:09:13;;;;;;;4.80;4.30;;;;;;;43.33;24.33;100547.91;108362;1274;23047;-59
2023/08/22 09:11:45;;;;;;;8.00;5.00;;;;;;;43.34;23.91;100540.19;108312;1281;23615;-71
2023/08/22 09:14:11;;;;;;;9.10;5.20;;;;;;;43.29;23.82;100545.70;108310;1270;21985;-69
2023/08/22 09:16:36;;;;;;;8.90;4.90;;;;;;;43.32;23.97;100549.55;108374;1281;21973;-58
2023/08/22 09:19:02;;;;;;;9.80;4.90;;;;;;;43.37;23.93;100549.70;108370;1278;21983;-59
2023/08/22 09:21:29;;;;;;;10.60;6.60;;;;;;;43.45;23.97;100541.06;108331;1283;22043;-70
2023/08/22 09:24:10;;;;;;;9.70;7.00;;;;;;;43.65;24.27;100540.38;108304;1281;21985;-70
2023/08/22 09:26:37;;;;;;;7.80;5.30;;;;;;;43.96;24.20;100543.16;108358;1282;22012;-59
2023/08/22 09:29:05;;;;;;;5.80;5.30;;;;;;;44.23;24.00;100540.31;108376;1278;23708;-71
2023/08/22 09:31:32;;;;;;;7.20;6.10;;;;;;;44.37;23.84;100538.27;108335;1280;21985;-70
2023/08/22 09:33:58;;;;;;;10.30;7.00;;;;;;;44.42;23.86;100531.05;108136;1277;21980;-72
2023/08/22 09:36:24;;;;;;;51.80;32.60;;;;;;;44.46;23.95;100532.25;108360;1278;21986;-71
2023/08/22 09:38:51;;;;;;;66.90;39.20;;;;;;;44.38;23.92;100535.23;108370;1277;21975;-67
2023/08/22 09:41:21;;;;;;;52.60;32.10;;;;;;;44.18;24.03;100535.14;108370;1281;23605;-72
2023/08/22 09:43:48;;;;;;;15.80;10.80;;;;;;;44.01;24.21;100535.80;108398;1275;22731;-60
2023/08/22 09:46:13;;;;;;;11.10;6.60;;;;;;;44.01;24.02;100532.23;108398;1272;21979;-59
2023/08/22 09:48:39;;;;;;;8.70;6.40;;;;;;;44.02;23.78;100528.48;108356;1283;22020;-71
2023/08/22 09:51:07;;;;;;;8.30;5.60;;;;;;;44.04;23.75;100523.85;108396;1278;22020;-60
2023/08/22 09:53:32;;;;;;;11.10;6.30;;;;;;;43.94;23.39;100527.41;108073;1279;21994;-72
2023/08/22 09:55:58;;;;;;;8.40;6.00;;;;;;;43.97;23.67;100529.93;108347;1283;22452;-72
2023/08/22 09:58:23;;;;;;;7.60;5.50;;;;;;;44.02;23.76;100528.83;108381;1274;22077;-72
2023/08/22 10:00:50;;;;;;;7.20;5.30;;;;;;;43.92;23.70;100527.75;108356;1281;24778;-72
2023/08/22 10:03:16;;;;;;;11.70;5.80;;;;;;;43.78;23.89;100529.11;108413;1281;21988;-72
2023/08/22 10:05:42;;;;;;;11.90;5.80;;;;;;;43.61;23.81;100526.02;108394;1284;21988;-71
2023/08/22 10:08:07;;;;;;;10.90;6.30;;;;;;;43.41;23.74;100527.70;108367;1283;21985;-72
2023/08/22 10:10:33;;;;;;;7.80;5.70;;;;;;;43.25;23.78;100530.83;108330;1283;21985;-73
2023/08/22 10:13:00;;;;;;;8.10;5.90;;;;;;;43.12;23.94;100531.41;108193;1281;21987;-72
2023/08/22 10:15:26;;;;;;;7.10;5.60;;;;;;;42.97;24.07;100528.14;108387;1277;23769;-72
2023/08/22 10:17:51;;;;;;;6.30;5.50;;;;;;;42.90;24.48;100519.76;108180;1284;23312;-74
2023/08/22 10:20:17;;;;;;;8.10;5.70;;;;;;;42.97;23.80;100519.29;108202;1283;21986;-74
2023/08/22 10:22:43;;;;;;;9.40;5.60;;;;;;;43.04;23.61;100519.13;108166;1281;21984;-72
2023/08/22 10:25:08;;;;;;;11.20;5.00;;;;;;;43.14;23.46;100520.39;108295;1284;22021;-71
2023/08/22 10:27:39;;;;;;;9.00;5.10;;;;;;;43.19;23.04;100513.17;108318;1283;22161;-73
2023/08/22 10:30:14;;;;;;;9.00;4.60;;;;;;;43.18;22.61;100520.92;108383;1274;21977;-72
2023/08/22 10:32:40;;;;;;;7.70;5.30;;;;;;;43.03;22.84;100522.57;108346;1278;21985;-72
2023/08/22 10:35:09;;;;;;;8.00;4.80;;;;;;;43.01;23.07;100522.48;108332;1283;21982;-58
2023/08/22 10:37:44;;;;;;;5.60;4.50;;;;;;;43.17;23.23;100516.15;108338;1277;22159;-58
2023/08/22 10:40:10;;;;;;;6.40;5.30;;;;;;;43.49;23.45;100513.52;108280;1274;21989;-59
2023/08/22 10:42:36;;;;;;;6.90;4.70;;;;;;;43.74;22.64;100515.85;108123;1281;21980;-74
2023/08/22 10:45:02;;;;;;;7.70;4.60;;;;;;;43.82;22.28;100518.89;108321;1283;24447;-59
2023/08/22 10:47:30;;;;;;;8.30;4.20;;;;;;;43.78;22.12;100519.35;108306;1283;22017;-58
2023/08/22 10:49:57;;;;;;;5.50;4.60;;;;;;;43.76;22.16;100516.73;108364;1283;21985;-58
2023/08/22 10:52:26;;;;;;;6.10;4.90;;;;;;;43.87;22.33;100506.15;108332;1278;22002;-58
2023/08/22 10:54:59;;;;;;;5.80;5.00;;;;;;;44.05;22.45;100503.02;108317;1281;21982;-71
2023/08/22 10:57:25;;;;;;;8.60;4.80;;;;;;;44.28;22.72;100502.16;108344;1281;21987;-58
2023/08/22 11:00:07;;;;;;;7.20;4.50;;;;;;;44.58;22.27;100500.14;108373;1275;21990;-59
2023/08/22 11:02:34;;;;;;;6.60;4.40;;;;;;;44.63;22.15;100500.80;108330;1281;22020;-74
2023/08/22 11:05:02;;;;;;;5.80;4.50;;;;;;;44.55;21.99;100502.42;108374;1277;21982;-58